<?xml version="1.0" encoding="UTF-8"?>
<gpx xmlns="http://www.topografix.com/GPX/1/1" xmlns:xsi="http://www.w3.org/2001/XMLSchema-instance" version="1.1" xsi:schemaLocation="http://www.topografix.com/GPX/1/1 http://www.topografix.com/GPX/1/1/gpx.xsd">
  <metadata>
    <name>San Diego International Triathlon 2022 - Sprint Aquabike</name>
  </metadata>
  <trk>
    <name>San Diego International Triathlon 2022 - Sprint Aquabike</name>
    <trkseg>
      <trkpt lat="32.728837" lon="-117.211697">
        <ele>0.994346</ele>
        <time>2024-06-23T07:30:00.000Z</time>
      </trkpt>
      <trkpt lat="32.72883" lon="-117.211806">
        <ele>0.994337</ele>
        <time>2024-06-23T07:30:01.000Z</time>
      </trkpt>
      <trkpt lat="32.728599" lon="-117.213481">
        <ele>1.047889</ele>
        <time>2024-06-23T07:30:17.000Z</time>
      </trkpt>
      <trkpt lat="32.728129" lon="-117.215676">
        <ele>1.513153</ele>
        <time>2024-06-23T07:30:38.000Z</time>
      </trkpt>
      <trkpt lat="32.727928" lon="-117.216525">
        <ele>1.873736</ele>
        <time>2024-06-23T07:30:46.000Z</time>
      </trkpt>
      <trkpt lat="32.727673" lon="-117.217275">
        <ele>2.20971</ele>
        <time>2024-06-23T07:30:54.000Z</time>
      </trkpt>
      <trkpt lat="32.727398" lon="-117.217927">
        <ele>2.504866</ele>
        <time>2024-06-23T07:31:01.000Z</time>
      </trkpt>
      <trkpt lat="32.727339" lon="-117.218091">
        <ele>2.57416</ele>
        <time>2024-06-23T07:31:03.000Z</time>
      </trkpt>
      <trkpt lat="32.727291" lon="-117.218162">
        <ele>2.609895</ele>
        <time>2024-06-23T07:31:04.000Z</time>
      </trkpt>
      <trkpt lat="32.727267" lon="-117.218214">
        <ele>2.637764</ele>
        <time>2024-06-23T07:31:05.000Z</time>
      </trkpt>
      <trkpt lat="32.727221" lon="-117.218277">
        <ele>2.668084</ele>
        <time>2024-06-23T07:31:06.000Z</time>
      </trkpt>
      <trkpt lat="32.727189" lon="-117.218354">
        <ele>2.701799</ele>
        <time>2024-06-23T07:31:07.000Z</time>
      </trkpt>
      <trkpt lat="32.726356" lon="-117.219997">
        <ele>2.965253</ele>
        <time>2024-06-23T07:31:25.000Z</time>
      </trkpt>
      <trkpt lat="32.726193" lon="-117.220332">
        <ele>2.983763</ele>
        <time>2024-06-23T07:31:29.000Z</time>
      </trkpt>
      <trkpt lat="32.725994" lon="-117.220746">
        <ele>2.970361</ele>
        <time>2024-06-23T07:31:33.000Z</time>
      </trkpt>
      <trkpt lat="32.725941" lon="-117.220834">
        <ele>2.951275</ele>
        <time>2024-06-23T07:31:34.000Z</time>
      </trkpt>
      <trkpt lat="32.725752" lon="-117.221313">
        <ele>2.852378</ele>
        <time>2024-06-23T07:31:39.000Z</time>
      </trkpt>
      <trkpt lat="32.725741" lon="-117.221401">
        <ele>2.835002</ele>
        <time>2024-06-23T07:31:40.000Z</time>
      </trkpt>
      <trkpt lat="32.725716" lon="-117.221507">
        <ele>2.816019</ele>
        <time>2024-06-23T07:31:41.000Z</time>
      </trkpt>
      <trkpt lat="32.7257" lon="-117.221582">
        <ele>2.799992</ele>
        <time>2024-06-23T07:31:42.000Z</time>
      </trkpt>
      <trkpt lat="32.725682" lon="-117.222243">
        <ele>2.675824</ele>
        <time>2024-06-23T07:31:48.000Z</time>
      </trkpt>
      <trkpt lat="32.725684" lon="-117.222962">
        <ele>2.438886</ele>
        <time>2024-06-23T07:31:55.000Z</time>
      </trkpt>
      <trkpt lat="32.725691" lon="-117.223502">
        <ele>2.161651</ele>
        <time>2024-06-23T07:32:00.000Z</time>
      </trkpt>
      <trkpt lat="32.725682" lon="-117.223805">
        <ele>2.001814</ele>
        <time>2024-06-23T07:32:03.000Z</time>
      </trkpt>
      <trkpt lat="32.725686" lon="-117.223976">
        <ele>1.904324</ele>
        <time>2024-06-23T07:32:05.000Z</time>
      </trkpt>
      <trkpt lat="32.725698" lon="-117.224196">
        <ele>1.792168</ele>
        <time>2024-06-23T07:32:07.000Z</time>
      </trkpt>
      <trkpt lat="32.725695" lon="-117.224313">
        <ele>1.729816</ele>
        <time>2024-06-23T07:32:08.000Z</time>
      </trkpt>
      <trkpt lat="32.725691" lon="-117.224392">
        <ele>1.686322</ele>
        <time>2024-06-23T07:32:09.000Z</time>
      </trkpt>
      <trkpt lat="32.725683" lon="-117.224504">
        <ele>1.631293</ele>
        <time>2024-06-23T07:32:10.000Z</time>
      </trkpt>
      <trkpt lat="32.725692" lon="-117.224877">
        <ele>1.456679</ele>
        <time>2024-06-23T07:32:13.000Z</time>
      </trkpt>
      <trkpt lat="32.725696" lon="-117.225295">
        <ele>1.334253</ele>
        <time>2024-06-23T07:32:17.000Z</time>
      </trkpt>
      <trkpt lat="32.725705" lon="-117.225782">
        <ele>1.191571</ele>
        <time>2024-06-23T07:32:22.000Z</time>
      </trkpt>
      <trkpt lat="32.72569" lon="-117.225867">
        <ele>1.171607</ele>
        <time>2024-06-23T07:32:23.000Z</time>
      </trkpt>
      <trkpt lat="32.725704" lon="-117.226033">
        <ele>1.123556</ele>
        <time>2024-06-23T07:32:25.000Z</time>
      </trkpt>
      <trkpt lat="32.725706" lon="-117.226203">
        <ele>1.072621</ele>
        <time>2024-06-23T07:32:27.000Z</time>
      </trkpt>
      <trkpt lat="32.725687" lon="-117.226777">
        <ele>0.904436</ele>
        <time>2024-06-23T07:32:32.000Z</time>
      </trkpt>
      <trkpt lat="32.725592" lon="-117.226873">
        <ele>0.863591</ele>
        <time>2024-06-23T07:32:33.000Z</time>
      </trkpt>
      <trkpt lat="32.725541" lon="-117.226921">
        <ele>0.875588</ele>
        <time>2024-06-23T07:32:34.000Z</time>
      </trkpt>
      <trkpt lat="32.725408" lon="-117.22702">
        <ele>0.916293</ele>
        <time>2024-06-23T07:32:36.000Z</time>
      </trkpt>
      <trkpt lat="32.725289" lon="-117.227112">
        <ele>0.950447</ele>
        <time>2024-06-23T07:32:38.000Z</time>
      </trkpt>
      <trkpt lat="32.725012" lon="-117.227366">
        <ele>1.038099</ele>
        <time>2024-06-23T07:32:42.000Z</time>
      </trkpt>
      <trkpt lat="32.724983" lon="-117.227384">
        <ele>1.047796</ele>
        <time>2024-06-23T07:32:42.000Z</time>
      </trkpt>
      <trkpt lat="32.724962" lon="-117.2274">
        <ele>1.053719</ele>
        <time>2024-06-23T07:32:42.000Z</time>
      </trkpt>
      <trkpt lat="32.724814" lon="-117.227513">
        <ele>1.095943</ele>
        <time>2024-06-23T07:32:44.000Z</time>
      </trkpt>
      <trkpt lat="32.724686" lon="-117.227631">
        <ele>1.138702</ele>
        <time>2024-06-23T07:32:46.000Z</time>
      </trkpt>
      <trkpt lat="32.724386" lon="-117.227892">
        <ele>1.231184</ele>
        <time>2024-06-23T07:32:50.000Z</time>
      </trkpt>
      <trkpt lat="32.723764" lon="-117.228413">
        <ele>1.578013</ele>
        <time>2024-06-23T07:32:58.000Z</time>
      </trkpt>
      <trkpt lat="32.723603" lon="-117.228554">
        <ele>1.706385</ele>
        <time>2024-06-23T07:33:00.000Z</time>
      </trkpt>
      <trkpt lat="32.723161" lon="-117.228913">
        <ele>2.04334</ele>
        <time>2024-06-23T07:33:06.000Z</time>
      </trkpt>
      <trkpt lat="32.722844" lon="-117.229194">
        <ele>2.289604</ele>
        <time>2024-06-23T07:33:10.000Z</time>
      </trkpt>
      <trkpt lat="32.72256" lon="-117.229415">
        <ele>2.534486</ele>
        <time>2024-06-23T07:33:14.000Z</time>
      </trkpt>
      <trkpt lat="32.722231" lon="-117.229693">
        <ele>2.885323</ele>
        <time>2024-06-23T07:33:18.000Z</time>
      </trkpt>
      <trkpt lat="32.72221" lon="-117.229727">
        <ele>2.919667</ele>
        <time>2024-06-23T07:33:18.000Z</time>
      </trkpt>
      <trkpt lat="32.722038" lon="-117.229866">
        <ele>3.09911</ele>
        <time>2024-06-23T07:33:20.000Z</time>
      </trkpt>
      <trkpt lat="32.721974" lon="-117.229941">
        <ele>3.185535</ele>
        <time>2024-06-23T07:33:21.000Z</time>
      </trkpt>
      <trkpt lat="32.721904" lon="-117.230023">
        <ele>3.273</ele>
        <time>2024-06-23T07:33:22.000Z</time>
      </trkpt>
      <trkpt lat="32.721656" lon="-117.230214">
        <ele>3.524149</ele>
        <time>2024-06-23T07:33:25.000Z</time>
      </trkpt>
      <trkpt lat="32.721611" lon="-117.230256">
        <ele>3.586504</ele>
        <time>2024-06-23T07:33:26.000Z</time>
      </trkpt>
      <trkpt lat="32.721369" lon="-117.230459">
        <ele>3.843941</ele>
        <time>2024-06-23T07:33:29.000Z</time>
      </trkpt>
      <trkpt lat="32.721507" lon="-117.230713">
        <ele>4.114882</ele>
        <time>2024-06-23T07:33:32.000Z</time>
      </trkpt>
      <trkpt lat="32.721552" lon="-117.230758">
        <ele>4.212345</ele>
        <time>2024-06-23T07:33:33.000Z</time>
      </trkpt>
      <trkpt lat="32.721616" lon="-117.230856">
        <ele>4.390878</ele>
        <time>2024-06-23T07:33:34.000Z</time>
      </trkpt>
      <trkpt lat="32.721716" lon="-117.231022">
        <ele>4.671339</ele>
        <time>2024-06-23T07:33:36.000Z</time>
      </trkpt>
      <trkpt lat="32.721951" lon="-117.231412">
        <ele>5.357359</ele>
        <time>2024-06-23T07:33:40.000Z</time>
      </trkpt>
      <trkpt lat="32.722001" lon="-117.231527">
        <ele>5.543508</ele>
        <time>2024-06-23T07:33:41.000Z</time>
      </trkpt>
      <trkpt lat="32.722056" lon="-117.231589">
        <ele>5.672746</ele>
        <time>2024-06-23T07:33:42.000Z</time>
      </trkpt>
      <trkpt lat="32.722225" lon="-117.231878">
        <ele>6.176749</ele>
        <time>2024-06-23T07:33:45.000Z</time>
      </trkpt>
      <trkpt lat="32.722599" lon="-117.232485">
        <ele>7.387679</ele>
        <time>2024-06-23T07:33:52.000Z</time>
      </trkpt>
      <trkpt lat="32.722466" lon="-117.232606">
        <ele>7.898448</ele>
        <time>2024-06-23T07:33:54.000Z</time>
      </trkpt>
      <trkpt lat="32.722367" lon="-117.232697">
        <ele>8.274099</ele>
        <time>2024-06-23T07:33:55.000Z</time>
      </trkpt>
      <trkpt lat="32.722192" lon="-117.232841">
        <ele>8.924235</ele>
        <time>2024-06-23T07:33:57.000Z</time>
      </trkpt>
      <trkpt lat="32.722116" lon="-117.232883">
        <ele>9.168345</ele>
        <time>2024-06-23T07:33:58.000Z</time>
      </trkpt>
      <trkpt lat="32.722662" lon="-117.233794">
        <ele>11.998969</ele>
        <time>2024-06-23T07:34:08.000Z</time>
      </trkpt>
      <trkpt lat="32.72273" lon="-117.233879">
        <ele>12.263396</ele>
        <time>2024-06-23T07:34:09.000Z</time>
      </trkpt>
      <trkpt lat="32.722969" lon="-117.234047">
        <ele>13.520805</ele>
        <time>2024-06-23T07:34:12.000Z</time>
      </trkpt>
      <trkpt lat="32.723105" lon="-117.234213">
        <ele>14.503328</ele>
        <time>2024-06-23T07:34:14.000Z</time>
      </trkpt>
      <trkpt lat="32.723336" lon="-117.234546">
        <ele>16.274106</ele>
        <time>2024-06-23T07:34:18.000Z</time>
      </trkpt>
      <trkpt lat="32.723444" lon="-117.234725">
        <ele>17.208859</ele>
        <time>2024-06-23T07:34:20.000Z</time>
      </trkpt>
      <trkpt lat="32.72447" lon="-117.236292">
        <ele>25.703093</ele>
        <time>2024-06-23T07:34:39.000Z</time>
      </trkpt>
      <trkpt lat="32.724581" lon="-117.236394">
        <ele>26.381606</ele>
        <time>2024-06-23T07:34:41.000Z</time>
      </trkpt>
      <trkpt lat="32.727323" lon="-117.238465">
        <ele>41.954922</ele>
        <time>2024-06-23T07:35:17.000Z</time>
      </trkpt>
      <trkpt lat="32.727673" lon="-117.238824">
        <ele>43.870461</ele>
        <time>2024-06-23T07:35:22.000Z</time>
      </trkpt>
      <trkpt lat="32.727865" lon="-117.239253">
        <ele>45.563682</ele>
        <time>2024-06-23T07:35:27.000Z</time>
      </trkpt>
      <trkpt lat="32.727979" lon="-117.239751">
        <ele>47.453712</ele>
        <time>2024-06-23T07:35:32.000Z</time>
      </trkpt>
      <trkpt lat="32.727974" lon="-117.240066">
        <ele>48.872215</ele>
        <time>2024-06-23T07:35:35.000Z</time>
      </trkpt>
      <trkpt lat="32.727885" lon="-117.240408">
        <ele>50.360182</ele>
        <time>2024-06-23T07:35:38.000Z</time>
      </trkpt>
      <trkpt lat="32.727669" lon="-117.24083">
        <ele>52.548926</ele>
        <time>2024-06-23T07:35:43.000Z</time>
      </trkpt>
      <trkpt lat="32.727418" lon="-117.241091">
        <ele>54.21543</ele>
        <time>2024-06-23T07:35:47.000Z</time>
      </trkpt>
      <trkpt lat="32.72713" lon="-117.241292">
        <ele>55.941414</ele>
        <time>2024-06-23T07:35:51.000Z</time>
      </trkpt>
      <trkpt lat="32.724818" lon="-117.242021">
        <ele>62.956517</ele>
        <time>2024-06-23T07:36:18.000Z</time>
      </trkpt>
      <trkpt lat="32.724285" lon="-117.242174">
        <ele>63.964539</ele>
        <time>2024-06-23T07:36:24.000Z</time>
      </trkpt>
      <trkpt lat="32.723873" lon="-117.242299">
        <ele>64.749149</ele>
        <time>2024-06-23T07:36:29.000Z</time>
      </trkpt>
      <trkpt lat="32.723313" lon="-117.242567">
        <ele>65.976653</ele>
        <time>2024-06-23T07:36:36.000Z</time>
      </trkpt>
      <trkpt lat="32.722756" lon="-117.243054">
        <ele>67.489014</ele>
        <time>2024-06-23T07:36:44.000Z</time>
      </trkpt>
      <trkpt lat="32.722445" lon="-117.243442">
        <ele>68.452885</ele>
        <time>2024-06-23T07:36:49.000Z</time>
      </trkpt>
      <trkpt lat="32.722388" lon="-117.243548">
        <ele>68.717182</ele>
        <time>2024-06-23T07:36:50.000Z</time>
      </trkpt>
      <trkpt lat="32.722303" lon="-117.243651">
        <ele>68.970952</ele>
        <time>2024-06-23T07:36:51.000Z</time>
      </trkpt>
      <trkpt lat="32.722231" lon="-117.24379">
        <ele>69.310363</ele>
        <time>2024-06-23T07:36:53.000Z</time>
      </trkpt>
      <trkpt lat="32.722088" lon="-117.24409">
        <ele>70.328644</ele>
        <time>2024-06-23T07:36:56.000Z</time>
      </trkpt>
      <trkpt lat="32.721701" lon="-117.24481">
        <ele>72.798571</ele>
        <time>2024-06-23T07:37:04.000Z</time>
      </trkpt>
      <trkpt lat="32.721524" lon="-117.245158">
        <ele>73.990394</ele>
        <time>2024-06-23T07:37:08.000Z</time>
      </trkpt>
      <trkpt lat="32.721224" lon="-117.245512">
        <ele>75.432595</ele>
        <time>2024-06-23T07:37:13.000Z</time>
      </trkpt>
      <trkpt lat="32.721044" lon="-117.245694">
        <ele>76.411988</ele>
        <time>2024-06-23T07:37:16.000Z</time>
      </trkpt>
      <trkpt lat="32.720982" lon="-117.24583">
        <ele>77.03588</ele>
        <time>2024-06-23T07:37:17.000Z</time>
      </trkpt>
      <trkpt lat="32.720949" lon="-117.24596">
        <ele>77.520784</ele>
        <time>2024-06-23T07:37:18.000Z</time>
      </trkpt>
      <trkpt lat="32.72055" lon="-117.246067">
        <ele>79.241916</ele>
        <time>2024-06-23T07:37:23.000Z</time>
      </trkpt>
      <trkpt lat="32.720308" lon="-117.246134">
        <ele>80.327958</ele>
        <time>2024-06-23T07:37:26.000Z</time>
      </trkpt>
      <trkpt lat="32.720134" lon="-117.246176">
        <ele>81.088412</ele>
        <time>2024-06-23T07:37:28.000Z</time>
      </trkpt>
      <trkpt lat="32.719708" lon="-117.246301">
        <ele>82.998769</ele>
        <time>2024-06-23T07:37:33.000Z</time>
      </trkpt>
      <trkpt lat="32.719154" lon="-117.246454">
        <ele>85.133448</ele>
        <time>2024-06-23T07:37:39.000Z</time>
      </trkpt>
      <trkpt lat="32.718956" lon="-117.246496">
        <ele>85.907732</ele>
        <time>2024-06-23T07:37:41.000Z</time>
      </trkpt>
      <trkpt lat="32.718821" lon="-117.246534">
        <ele>86.436966</ele>
        <time>2024-06-23T07:37:43.000Z</time>
      </trkpt>
      <trkpt lat="32.718385" lon="-117.246648">
        <ele>88.125051</ele>
        <time>2024-06-23T07:37:48.000Z</time>
      </trkpt>
      <trkpt lat="32.717915" lon="-117.246791">
        <ele>89.965402</ele>
        <time>2024-06-23T07:37:53.000Z</time>
      </trkpt>
      <trkpt lat="32.717442" lon="-117.246908">
        <ele>91.147038</ele>
        <time>2024-06-23T07:37:58.000Z</time>
      </trkpt>
      <trkpt lat="32.716973" lon="-117.247026">
        <ele>92.333101</ele>
        <time>2024-06-23T07:38:03.000Z</time>
      </trkpt>
      <trkpt lat="32.716486" lon="-117.24716">
        <ele>93.558919</ele>
        <time>2024-06-23T07:38:09.000Z</time>
      </trkpt>
      <trkpt lat="32.716033" lon="-117.247275">
        <ele>94.527289</ele>
        <time>2024-06-23T07:38:14.000Z</time>
      </trkpt>
      <trkpt lat="32.71571" lon="-117.247364">
        <ele>94.943754</ele>
        <time>2024-06-23T07:38:18.000Z</time>
      </trkpt>
      <trkpt lat="32.715562" lon="-117.247402">
        <ele>95.141607</ele>
        <time>2024-06-23T07:38:20.000Z</time>
      </trkpt>
      <trkpt lat="32.715096" lon="-117.247537">
        <ele>95.762115</ele>
        <time>2024-06-23T07:38:25.000Z</time>
      </trkpt>
      <trkpt lat="32.714602" lon="-117.247661">
        <ele>96.398426</ele>
        <time>2024-06-23T07:38:31.000Z</time>
      </trkpt>
      <trkpt lat="32.714139" lon="-117.247788">
        <ele>97.121106</ele>
        <time>2024-06-23T07:38:36.000Z</time>
      </trkpt>
      <trkpt lat="32.713837" lon="-117.247866">
        <ele>97.639162</ele>
        <time>2024-06-23T07:38:39.000Z</time>
      </trkpt>
      <trkpt lat="32.713441" lon="-117.247982">
        <ele>98.346266</ele>
        <time>2024-06-23T07:38:44.000Z</time>
      </trkpt>
      <trkpt lat="32.712934" lon="-117.248104">
        <ele>99.233806</ele>
        <time>2024-06-23T07:38:50.000Z</time>
      </trkpt>
      <trkpt lat="32.71172" lon="-117.248427">
        <ele>102.852569</ele>
        <time>2024-06-23T07:39:04.000Z</time>
      </trkpt>
      <trkpt lat="32.711562" lon="-117.248485">
        <ele>103.368748</ele>
        <time>2024-06-23T07:39:06.000Z</time>
      </trkpt>
      <trkpt lat="32.710621" lon="-117.248727">
        <ele>106.506034</ele>
        <time>2024-06-23T07:39:17.000Z</time>
      </trkpt>
      <trkpt lat="32.710279" lon="-117.248824">
        <ele>107.583341</ele>
        <time>2024-06-23T07:39:21.000Z</time>
      </trkpt>
      <trkpt lat="32.709839" lon="-117.248938">
        <ele>109.00353</ele>
        <time>2024-06-23T07:39:26.000Z</time>
      </trkpt>
      <trkpt lat="32.709468" lon="-117.249012">
        <ele>110.210722</ele>
        <time>2024-06-23T07:39:30.000Z</time>
      </trkpt>
      <trkpt lat="32.709416" lon="-117.249034">
        <ele>110.322428</ele>
        <time>2024-06-23T07:39:31.000Z</time>
      </trkpt>
      <trkpt lat="32.70898" lon="-117.24914">
        <ele>111.49421</ele>
        <time>2024-06-23T07:39:36.000Z</time>
      </trkpt>
      <trkpt lat="32.708953" lon="-117.24914">
        <ele>111.541408</ele>
        <time>2024-06-23T07:39:36.000Z</time>
      </trkpt>
      <trkpt lat="32.708827" lon="-117.249168">
        <ele>111.772457</ele>
        <time>2024-06-23T07:39:37.000Z</time>
      </trkpt>
      <trkpt lat="32.708794" lon="-117.249182">
        <ele>111.857828</ele>
        <time>2024-06-23T07:39:37.000Z</time>
      </trkpt>
      <trkpt lat="32.708451" lon="-117.249264">
        <ele>112.454236</ele>
        <time>2024-06-23T07:39:41.000Z</time>
      </trkpt>
      <trkpt lat="32.707923" lon="-117.249399">
        <ele>113.445369</ele>
        <time>2024-06-23T07:39:47.000Z</time>
      </trkpt>
      <trkpt lat="32.7076" lon="-117.249452">
        <ele>114.01138</ele>
        <time>2024-06-23T07:39:51.000Z</time>
      </trkpt>
      <trkpt lat="32.707067" lon="-117.249261">
        <ele>113.709434</ele>
        <time>2024-06-23T07:39:57.000Z</time>
      </trkpt>
      <trkpt lat="32.706506" lon="-117.249086">
        <ele>112.4954</ele>
        <time>2024-06-23T07:40:03.000Z</time>
      </trkpt>
      <trkpt lat="32.706021" lon="-117.248966">
        <ele>111.442429</ele>
        <time>2024-06-23T07:40:09.000Z</time>
      </trkpt>
      <trkpt lat="32.705831" lon="-117.248922">
        <ele>111.043217</ele>
        <time>2024-06-23T07:40:11.000Z</time>
      </trkpt>
      <trkpt lat="32.704841" lon="-117.248779">
        <ele>108.387341</ele>
        <time>2024-06-23T07:40:22.000Z</time>
      </trkpt>
      <trkpt lat="32.704668" lon="-117.248779">
        <ele>107.917278</ele>
        <time>2024-06-23T07:40:24.000Z</time>
      </trkpt>
      <trkpt lat="32.703321" lon="-117.249293">
        <ele>104.685552</ele>
        <time>2024-06-23T07:40:40.000Z</time>
      </trkpt>
      <trkpt lat="32.702829" lon="-117.24933">
        <ele>103.892745</ele>
        <time>2024-06-23T07:40:45.000Z</time>
      </trkpt>
      <trkpt lat="32.702227" lon="-117.249287">
        <ele>102.973031</ele>
        <time>2024-06-23T07:40:52.000Z</time>
      </trkpt>
      <trkpt lat="32.701556" lon="-117.249059">
        <ele>101.273699</ele>
        <time>2024-06-23T07:41:00.000Z</time>
      </trkpt>
      <trkpt lat="32.701302" lon="-117.248931">
        <ele>100.529667</ele>
        <time>2024-06-23T07:41:03.000Z</time>
      </trkpt>
      <trkpt lat="32.700618" lon="-117.248503">
        <ele>98.50321</ele>
        <time>2024-06-23T07:41:12.000Z</time>
      </trkpt>
      <trkpt lat="32.700147" lon="-117.248174">
        <ele>97.275097</ele>
        <time>2024-06-23T07:41:18.000Z</time>
      </trkpt>
      <trkpt lat="32.69995" lon="-117.248039">
        <ele>96.821005</ele>
        <time>2024-06-23T07:41:21.000Z</time>
      </trkpt>
      <trkpt lat="32.699305" lon="-117.247624">
        <ele>95.291475</ele>
        <time>2024-06-23T07:41:29.000Z</time>
      </trkpt>
      <trkpt lat="32.698558" lon="-117.247123">
        <ele>93.970259</ele>
        <time>2024-06-23T07:41:39.000Z</time>
      </trkpt>
      <trkpt lat="32.697915" lon="-117.246763">
        <ele>93.311984</ele>
        <time>2024-06-23T07:41:47.000Z</time>
      </trkpt>
      <trkpt lat="32.697139" lon="-117.246494">
        <ele>92.875632</ele>
        <time>2024-06-23T07:41:56.000Z</time>
      </trkpt>
      <trkpt lat="32.696811" lon="-117.24639">
        <ele>93.462542</ele>
        <time>2024-06-23T07:42:00.000Z</time>
      </trkpt>
      <trkpt lat="32.69564" lon="-117.246243">
        <ele>95.487346</ele>
        <time>2024-06-23T07:42:13.000Z</time>
      </trkpt>
      <trkpt lat="32.694972" lon="-117.246042">
        <ele>96.77258</ele>
        <time>2024-06-23T07:42:21.000Z</time>
      </trkpt>
      <trkpt lat="32.694368" lon="-117.245673">
        <ele>98.085919</ele>
        <time>2024-06-23T07:42:29.000Z</time>
      </trkpt>
      <trkpt lat="32.693969" lon="-117.245499">
        <ele>98.898303</ele>
        <time>2024-06-23T07:42:34.000Z</time>
      </trkpt>
      <trkpt lat="32.692043" lon="-117.245139">
        <ele>99.968948</ele>
        <time>2024-06-23T07:42:56.000Z</time>
      </trkpt>
      <trkpt lat="32.690523" lon="-117.245027">
        <ele>101.473295</ele>
        <time>2024-06-23T07:43:13.000Z</time>
      </trkpt>
      <trkpt lat="32.688779" lon="-117.244919">
        <ele>102.240888</ele>
        <time>2024-06-23T07:43:32.000Z</time>
      </trkpt>
      <trkpt lat="32.684638" lon="-117.24458">
        <ele>99.590994</ele>
        <time>2024-06-23T07:44:18.000Z</time>
      </trkpt>
      <trkpt lat="32.683537" lon="-117.244465">
        <ele>95.94591</ele>
        <time>2024-06-23T07:44:30.000Z</time>
      </trkpt>
      <trkpt lat="32.682808" lon="-117.244184">
        <ele>93.901483</ele>
        <time>2024-06-23T07:44:39.000Z</time>
      </trkpt>
      <trkpt lat="32.681609" lon="-117.243671">
        <ele>91.727273</ele>
        <time>2024-06-23T07:44:53.000Z</time>
      </trkpt>
      <trkpt lat="32.681129" lon="-117.243588">
        <ele>91.579622</ele>
        <time>2024-06-23T07:44:58.000Z</time>
      </trkpt>
      <trkpt lat="32.680722" lon="-117.243583">
        <ele>92.098243</ele>
        <time>2024-06-23T07:45:03.000Z</time>
      </trkpt>
      <trkpt lat="32.680471" lon="-117.243609">
        <ele>92.408006</ele>
        <time>2024-06-23T07:45:06.000Z</time>
      </trkpt>
      <trkpt lat="32.680263" lon="-117.243605">
        <ele>92.659274</ele>
        <time>2024-06-23T07:45:08.000Z</time>
      </trkpt>
      <trkpt lat="32.679945" lon="-117.243588">
        <ele>93.061873</ele>
        <time>2024-06-23T07:45:12.000Z</time>
      </trkpt>
      <trkpt lat="32.679194" lon="-117.243397">
        <ele>93.757772</ele>
        <time>2024-06-23T07:45:21.000Z</time>
      </trkpt>
      <trkpt lat="32.678784" lon="-117.243356">
        <ele>94.012062</ele>
        <time>2024-06-23T07:45:26.000Z</time>
      </trkpt>
      <trkpt lat="32.677997" lon="-117.243378">
        <ele>94.503542</ele>
        <time>2024-06-23T07:45:35.000Z</time>
      </trkpt>
      <trkpt lat="32.677465" lon="-117.243409">
        <ele>95.224799</ele>
        <time>2024-06-23T07:45:41.000Z</time>
      </trkpt>
      <trkpt lat="32.67693" lon="-117.243313">
        <ele>96.234386</ele>
        <time>2024-06-23T07:45:47.000Z</time>
      </trkpt>
      <trkpt lat="32.676753" lon="-117.243281">
        <ele>96.554708</ele>
        <time>2024-06-23T07:45:49.000Z</time>
      </trkpt>
      <trkpt lat="32.676434" lon="-117.24319">
        <ele>97.149592</ele>
        <time>2024-06-23T07:45:53.000Z</time>
      </trkpt>
      <trkpt lat="32.675984" lon="-117.243119">
        <ele>98.001448</ele>
        <time>2024-06-23T07:45:58.000Z</time>
      </trkpt>
      <trkpt lat="32.675778" lon="-117.243083">
        <ele>98.681803</ele>
        <time>2024-06-23T07:46:00.000Z</time>
      </trkpt>
      <trkpt lat="32.675583" lon="-117.243038">
        <ele>99.275704</ele>
        <time>2024-06-23T07:46:02.000Z</time>
      </trkpt>
      <trkpt lat="32.675149" lon="-117.24296">
        <ele>100.674157</ele>
        <time>2024-06-23T07:46:07.000Z</time>
      </trkpt>
      <trkpt lat="32.674596" lon="-117.242692">
        <ele>102.552462</ele>
        <time>2024-06-23T07:46:14.000Z</time>
      </trkpt>
      <trkpt lat="32.67428" lon="-117.242499">
        <ele>103.309316</ele>
        <time>2024-06-23T07:46:18.000Z</time>
      </trkpt>
      <trkpt lat="32.673994" lon="-117.242202">
        <ele>101.190612</ele>
        <time>2024-06-23T07:46:22.000Z</time>
      </trkpt>
      <trkpt lat="32.673752" lon="-117.241788">
        <ele>98.686455</ele>
        <time>2024-06-23T07:46:27.000Z</time>
      </trkpt>
      <trkpt lat="32.673668" lon="-117.241504">
        <ele>97.242118</ele>
        <time>2024-06-23T07:46:30.000Z</time>
      </trkpt>
      <trkpt lat="32.673665" lon="-117.241129">
        <ele>95.44598</ele>
        <time>2024-06-23T07:46:34.000Z</time>
      </trkpt>
      <trkpt lat="32.673769" lon="-117.240645">
        <ele>93.122827</ele>
        <time>2024-06-23T07:46:39.000Z</time>
      </trkpt>
      <trkpt lat="32.673982" lon="-117.240158">
        <ele>92.320318</ele>
        <time>2024-06-23T07:46:44.000Z</time>
      </trkpt>
      <trkpt lat="32.674065" lon="-117.239968">
        <ele>92.027606</ele>
        <time>2024-06-23T07:46:46.000Z</time>
      </trkpt>
      <trkpt lat="32.673985" lon="-117.239808">
        <ele>91.745123</ele>
        <time>2024-06-23T07:46:48.000Z</time>
      </trkpt>
      <trkpt lat="32.674061" lon="-117.239638">
        <ele>91.460938</ele>
        <time>2024-06-23T07:46:50.000Z</time>
      </trkpt>
      <trkpt lat="32.67415" lon="-117.239599">
        <ele>91.315587</ele>
        <time>2024-06-23T07:46:51.000Z</time>
      </trkpt>
      <trkpt lat="32.674296" lon="-117.239674">
        <ele>91.031688</ele>
        <time>2024-06-23T07:46:53.000Z</time>
      </trkpt>
      <trkpt lat="32.67431" lon="-117.239877">
        <ele>90.748489</ele>
        <time>2024-06-23T07:46:55.000Z</time>
      </trkpt>
      <trkpt lat="32.674255" lon="-117.239959">
        <ele>90.602349</ele>
        <time>2024-06-23T07:46:56.000Z</time>
      </trkpt>
      <trkpt lat="32.674175" lon="-117.24001">
        <ele>90.422387</ele>
        <time>2024-06-23T07:46:57.000Z</time>
      </trkpt>
      <trkpt lat="32.674055" lon="-117.239969">
        <ele>90.243474</ele>
        <time>2024-06-23T07:46:58.000Z</time>
      </trkpt>
      <trkpt lat="32.674063" lon="-117.239972">
        <ele>90.243473</ele>
        <time>2024-06-23T07:46:58.000Z</time>
      </trkpt>
      <trkpt lat="32.674067" lon="-117.239974">
        <ele>90.243474</ele>
        <time>2024-06-23T07:46:58.000Z</time>
      </trkpt>
      <trkpt lat="32.67398" lon="-117.240155">
        <ele>90.630994</ele>
        <time>2024-06-23T07:47:00.000Z</time>
      </trkpt>
      <trkpt lat="32.673973" lon="-117.240158">
        <ele>90.630993</ele>
        <time>2024-06-23T07:47:00.000Z</time>
      </trkpt>
      <trkpt lat="32.673968" lon="-117.240152">
        <ele>90.630988</ele>
        <time>2024-06-23T07:47:00.000Z</time>
      </trkpt>
      <trkpt lat="32.673794" lon="-117.240597">
        <ele>93.427669</ele>
        <time>2024-06-23T07:47:05.000Z</time>
      </trkpt>
      <trkpt lat="32.673793" lon="-117.240595">
        <ele>93.427685</ele>
        <time>2024-06-23T07:47:05.000Z</time>
      </trkpt>
      <trkpt lat="32.673788" lon="-117.240599">
        <ele>93.427682</ele>
        <time>2024-06-23T07:47:05.000Z</time>
      </trkpt>
      <trkpt lat="32.673668" lon="-117.241139">
        <ele>96.462211</ele>
        <time>2024-06-23T07:47:10.000Z</time>
      </trkpt>
      <trkpt lat="32.673658" lon="-117.241125">
        <ele>96.462207</ele>
        <time>2024-06-23T07:47:10.000Z</time>
      </trkpt>
      <trkpt lat="32.673668" lon="-117.241139">
        <ele>96.462208</ele>
        <time>2024-06-23T07:47:10.000Z</time>
      </trkpt>
      <trkpt lat="32.673681" lon="-117.241504">
        <ele>98.516781</ele>
        <time>2024-06-23T07:47:13.000Z</time>
      </trkpt>
      <trkpt lat="32.673671" lon="-117.241506">
        <ele>98.516788</ele>
        <time>2024-06-23T07:47:13.000Z</time>
      </trkpt>
      <trkpt lat="32.673683" lon="-117.241507">
        <ele>98.516787</ele>
        <time>2024-06-23T07:47:13.000Z</time>
      </trkpt>
      <trkpt lat="32.673748" lon="-117.241785">
        <ele>100.18571</ele>
        <time>2024-06-23T07:47:16.000Z</time>
      </trkpt>
      <trkpt lat="32.673752" lon="-117.241792">
        <ele>100.185717</ele>
        <time>2024-06-23T07:47:16.000Z</time>
      </trkpt>
      <trkpt lat="32.67374" lon="-117.241791">
        <ele>100.185703</ele>
        <time>2024-06-23T07:47:16.000Z</time>
      </trkpt>
      <trkpt lat="32.673993" lon="-117.242189">
        <ele>101.777808</ele>
        <time>2024-06-23T07:47:21.000Z</time>
      </trkpt>
      <trkpt lat="32.674" lon="-117.242193">
        <ele>101.777804</ele>
        <time>2024-06-23T07:47:21.000Z</time>
      </trkpt>
      <trkpt lat="32.674006" lon="-117.242199">
        <ele>101.777815</ele>
        <time>2024-06-23T07:47:21.000Z</time>
      </trkpt>
      <trkpt lat="32.674261" lon="-117.242488">
        <ele>101.39119</ele>
        <time>2024-06-23T07:47:25.000Z</time>
      </trkpt>
      <trkpt lat="32.674271" lon="-117.24248">
        <ele>101.391198</ele>
        <time>2024-06-23T07:47:25.000Z</time>
      </trkpt>
      <trkpt lat="32.67459" lon="-117.242701">
        <ele>100.999275</ele>
        <time>2024-06-23T07:47:29.000Z</time>
      </trkpt>
      <trkpt lat="32.675152" lon="-117.242944">
        <ele>100.35647</ele>
        <time>2024-06-23T07:47:36.000Z</time>
      </trkpt>
      <trkpt lat="32.675616" lon="-117.243036">
        <ele>99.561113</ele>
        <time>2024-06-23T07:47:41.000Z</time>
      </trkpt>
      <trkpt lat="32.67609" lon="-117.243133">
        <ele>98.226399</ele>
        <time>2024-06-23T07:47:46.000Z</time>
      </trkpt>
      <trkpt lat="32.676435" lon="-117.243194">
        <ele>97.263436</ele>
        <time>2024-06-23T07:47:50.000Z</time>
      </trkpt>
      <trkpt lat="32.676955" lon="-117.243191">
        <ele>95.79201</ele>
        <time>2024-06-23T07:47:56.000Z</time>
      </trkpt>
      <trkpt lat="32.677468" lon="-117.243322">
        <ele>94.939896</ele>
        <time>2024-06-23T07:48:02.000Z</time>
      </trkpt>
      <trkpt lat="32.678" lon="-117.243375">
        <ele>94.776627</ele>
        <time>2024-06-23T07:48:08.000Z</time>
      </trkpt>
      <trkpt lat="32.678796" lon="-117.243346">
        <ele>94.530172</ele>
        <time>2024-06-23T07:48:17.000Z</time>
      </trkpt>
      <trkpt lat="32.679197" lon="-117.243403">
        <ele>94.168215</ele>
        <time>2024-06-23T07:48:21.000Z</time>
      </trkpt>
      <trkpt lat="32.679938" lon="-117.243593">
        <ele>92.918132</ele>
        <time>2024-06-23T07:48:29.000Z</time>
      </trkpt>
      <trkpt lat="32.680269" lon="-117.243598">
        <ele>92.381031</ele>
        <time>2024-06-23T07:48:33.000Z</time>
      </trkpt>
      <trkpt lat="32.680461" lon="-117.243614">
        <ele>92.045831</ele>
        <time>2024-06-23T07:48:35.000Z</time>
      </trkpt>
      <trkpt lat="32.680718" lon="-117.243592">
        <ele>91.632568</ele>
        <time>2024-06-23T07:48:38.000Z</time>
      </trkpt>
      <trkpt lat="32.681132" lon="-117.243589">
        <ele>91.710162</ele>
        <time>2024-06-23T07:48:43.000Z</time>
      </trkpt>
      <trkpt lat="32.681626" lon="-117.243687">
        <ele>92.039194</ele>
        <time>2024-06-23T07:48:49.000Z</time>
      </trkpt>
      <trkpt lat="32.682803" lon="-117.24419">
        <ele>93.681653</ele>
        <time>2024-06-23T07:49:03.000Z</time>
      </trkpt>
      <trkpt lat="32.683533" lon="-117.244479">
        <ele>96.314834</ele>
        <time>2024-06-23T07:49:12.000Z</time>
      </trkpt>
      <trkpt lat="32.684639" lon="-117.244587">
        <ele>99.254866</ele>
        <time>2024-06-23T07:49:24.000Z</time>
      </trkpt>
      <trkpt lat="32.688778" lon="-117.244915">
        <ele>102.152693</ele>
        <time>2024-06-23T07:50:10.000Z</time>
      </trkpt>
      <trkpt lat="32.690521" lon="-117.245036">
        <ele>101.354192</ele>
        <time>2024-06-23T07:50:29.000Z</time>
      </trkpt>
      <trkpt lat="32.69205" lon="-117.24513">
        <ele>100.177336</ele>
        <time>2024-06-23T07:50:46.000Z</time>
      </trkpt>
      <trkpt lat="32.693969" lon="-117.24551">
        <ele>98.57274</ele>
        <time>2024-06-23T07:51:08.000Z</time>
      </trkpt>
      <trkpt lat="32.694372" lon="-117.245677">
        <ele>98.035332</ele>
        <time>2024-06-23T07:51:13.000Z</time>
      </trkpt>
      <trkpt lat="32.69497" lon="-117.246054">
        <ele>97.121</ele>
        <time>2024-06-23T07:51:21.000Z</time>
      </trkpt>
      <trkpt lat="32.695644" lon="-117.246237">
        <ele>95.54197</ele>
        <time>2024-06-23T07:51:29.000Z</time>
      </trkpt>
      <trkpt lat="32.696808" lon="-117.246395">
        <ele>93.115169</ele>
        <time>2024-06-23T07:51:42.000Z</time>
      </trkpt>
      <trkpt lat="32.697141" lon="-117.246495">
        <ele>93.197867</ele>
        <time>2024-06-23T07:51:46.000Z</time>
      </trkpt>
      <trkpt lat="32.697914" lon="-117.246776">
        <ele>93.393764</ele>
        <time>2024-06-23T07:51:55.000Z</time>
      </trkpt>
      <trkpt lat="32.698545" lon="-117.247131">
        <ele>93.813681</ele>
        <time>2024-06-23T07:52:03.000Z</time>
      </trkpt>
      <trkpt lat="32.699295" lon="-117.24763">
        <ele>95.331431</ele>
        <time>2024-06-23T07:52:13.000Z</time>
      </trkpt>
      <trkpt lat="32.69996" lon="-117.248048">
        <ele>96.636525</ele>
        <time>2024-06-23T07:52:21.000Z</time>
      </trkpt>
      <trkpt lat="32.700136" lon="-117.248176">
        <ele>97.185577</ele>
        <time>2024-06-23T07:52:23.000Z</time>
      </trkpt>
      <trkpt lat="32.700623" lon="-117.248513">
        <ele>98.635537</ele>
        <time>2024-06-23T07:52:29.000Z</time>
      </trkpt>
      <trkpt lat="32.701309" lon="-117.24893">
        <ele>100.677416</ele>
        <time>2024-06-23T07:52:38.000Z</time>
      </trkpt>
      <trkpt lat="32.701557" lon="-117.249056">
        <ele>101.427106</ele>
        <time>2024-06-23T07:52:41.000Z</time>
      </trkpt>
      <trkpt lat="32.702235" lon="-117.2493">
        <ele>102.696702</ele>
        <time>2024-06-23T07:52:49.000Z</time>
      </trkpt>
      <trkpt lat="32.702827" lon="-117.249336">
        <ele>103.759994</ele>
        <time>2024-06-23T07:52:56.000Z</time>
      </trkpt>
      <trkpt lat="32.703327" lon="-117.24929">
        <ele>104.676576</ele>
        <time>2024-06-23T07:53:02.000Z</time>
      </trkpt>
      <trkpt lat="32.704679" lon="-117.248782">
        <ele>107.822798</ele>
        <time>2024-06-23T07:53:18.000Z</time>
      </trkpt>
      <trkpt lat="32.704844" lon="-117.248777">
        <ele>108.198461</ele>
        <time>2024-06-23T07:53:20.000Z</time>
      </trkpt>
      <trkpt lat="32.705834" lon="-117.248929">
        <ele>110.977409</ele>
        <time>2024-06-23T07:53:31.000Z</time>
      </trkpt>
      <trkpt lat="32.706016" lon="-117.248971">
        <ele>111.534677</ele>
        <time>2024-06-23T07:53:33.000Z</time>
      </trkpt>
      <trkpt lat="32.706519" lon="-117.249085">
        <ele>113.004574</ele>
        <time>2024-06-23T07:53:39.000Z</time>
      </trkpt>
      <trkpt lat="32.707069" lon="-117.249264">
        <ele>113.831616</ele>
        <time>2024-06-23T07:53:45.000Z</time>
      </trkpt>
      <trkpt lat="32.707609" lon="-117.249442">
        <ele>113.405616</ele>
        <time>2024-06-23T07:53:51.000Z</time>
      </trkpt>
      <trkpt lat="32.707916" lon="-117.249397">
        <ele>113.161256</ele>
        <time>2024-06-23T07:53:54.000Z</time>
      </trkpt>
      <trkpt lat="32.708458" lon="-117.249266">
        <ele>112.733348</ele>
        <time>2024-06-23T07:54:00.000Z</time>
      </trkpt>
      <trkpt lat="32.708784" lon="-117.249181">
        <ele>112.069337</ele>
        <time>2024-06-23T07:54:04.000Z</time>
      </trkpt>
      <trkpt lat="32.70883" lon="-117.249167">
        <ele>111.933727</ele>
        <time>2024-06-23T07:54:05.000Z</time>
      </trkpt>
      <trkpt lat="32.70897" lon="-117.249136">
        <ele>111.566693</ele>
        <time>2024-06-23T07:54:07.000Z</time>
      </trkpt>
      <trkpt lat="32.70899" lon="-117.249143">
        <ele>111.491707</ele>
        <time>2024-06-23T07:54:07.000Z</time>
      </trkpt>
      <trkpt lat="32.709434" lon="-117.249034">
        <ele>110.229521</ele>
        <time>2024-06-23T07:54:12.000Z</time>
      </trkpt>
      <trkpt lat="32.709468" lon="-117.249025">
        <ele>110.128146</ele>
        <time>2024-06-23T07:54:12.000Z</time>
      </trkpt>
      <trkpt lat="32.709849" lon="-117.248949">
        <ele>109.032422</ele>
        <time>2024-06-23T07:54:16.000Z</time>
      </trkpt>
      <trkpt lat="32.71028" lon="-117.248829">
        <ele>107.743366</ele>
        <time>2024-06-23T07:54:21.000Z</time>
      </trkpt>
      <trkpt lat="32.710631" lon="-117.248722">
        <ele>106.603795</ele>
        <time>2024-06-23T07:54:25.000Z</time>
      </trkpt>
      <trkpt lat="32.711569" lon="-117.24847">
        <ele>103.271489</ele>
        <time>2024-06-23T07:54:36.000Z</time>
      </trkpt>
      <trkpt lat="32.711728" lon="-117.248443">
        <ele>102.730865</ele>
        <time>2024-06-23T07:54:38.000Z</time>
      </trkpt>
      <trkpt lat="32.712934" lon="-117.24811">
        <ele>99.458061</ele>
        <time>2024-06-23T07:54:52.000Z</time>
      </trkpt>
      <trkpt lat="32.713441" lon="-117.247983">
        <ele>98.277355</ele>
        <time>2024-06-23T07:54:58.000Z</time>
      </trkpt>
      <trkpt lat="32.713842" lon="-117.247857">
        <ele>97.336677</ele>
        <time>2024-06-23T07:55:03.000Z</time>
      </trkpt>
      <trkpt lat="32.714594" lon="-117.247664">
        <ele>96.443524</ele>
        <time>2024-06-23T07:55:12.000Z</time>
      </trkpt>
      <trkpt lat="32.715086" lon="-117.247541">
        <ele>95.881724</ele>
        <time>2024-06-23T07:55:18.000Z</time>
      </trkpt>
      <trkpt lat="32.715563" lon="-117.247411">
        <ele>95.333887</ele>
        <time>2024-06-23T07:55:23.000Z</time>
      </trkpt>
      <trkpt lat="32.715714" lon="-117.24737">
        <ele>95.063987</ele>
        <time>2024-06-23T07:55:25.000Z</time>
      </trkpt>
      <trkpt lat="32.716038" lon="-117.247277">
        <ele>94.387233</ele>
        <time>2024-06-23T07:55:29.000Z</time>
      </trkpt>
      <trkpt lat="32.716485" lon="-117.247167">
        <ele>93.439897</ele>
        <time>2024-06-23T07:55:34.000Z</time>
      </trkpt>
      <trkpt lat="32.716972" lon="-117.247028">
        <ele>92.412294</ele>
        <time>2024-06-23T07:55:40.000Z</time>
      </trkpt>
      <trkpt lat="32.717451" lon="-117.246905">
        <ele>91.326635</ele>
        <time>2024-06-23T07:55:45.000Z</time>
      </trkpt>
      <trkpt lat="32.717914" lon="-117.24678">
        <ele>89.707985</ele>
        <time>2024-06-23T07:55:50.000Z</time>
      </trkpt>
      <trkpt lat="32.718385" lon="-117.246652">
        <ele>88.055123</ele>
        <time>2024-06-23T07:55:55.000Z</time>
      </trkpt>
      <trkpt lat="32.718827" lon="-117.246538">
        <ele>86.555044</ele>
        <time>2024-06-23T07:56:00.000Z</time>
      </trkpt>
      <trkpt lat="32.718953" lon="-117.246494">
        <ele>86.084768</ele>
        <time>2024-06-23T07:56:01.000Z</time>
      </trkpt>
      <trkpt lat="32.719158" lon="-117.246453">
        <ele>85.365446</ele>
        <time>2024-06-23T07:56:03.000Z</time>
      </trkpt>
      <trkpt lat="32.719706" lon="-117.246311">
        <ele>82.905734</ele>
        <time>2024-06-23T07:56:09.000Z</time>
      </trkpt>
      <trkpt lat="32.720145" lon="-117.246183">
        <ele>80.962318</ele>
        <time>2024-06-23T07:56:14.000Z</time>
      </trkpt>
      <trkpt lat="32.720299" lon="-117.246132">
        <ele>80.188726</ele>
        <time>2024-06-23T07:56:16.000Z</time>
      </trkpt>
      <trkpt lat="32.720743" lon="-117.245829">
        <ele>77.989923</ele>
        <time>2024-06-23T07:56:22.000Z</time>
      </trkpt>
      <trkpt lat="32.721025" lon="-117.245583">
        <ele>76.535803</ele>
        <time>2024-06-23T07:56:26.000Z</time>
      </trkpt>
      <trkpt lat="32.721328" lon="-117.245234">
        <ele>74.896104</ele>
        <time>2024-06-23T07:56:31.000Z</time>
      </trkpt>
      <trkpt lat="32.721696" lon="-117.244811">
        <ele>72.899186</ele>
        <time>2024-06-23T07:56:37.000Z</time>
      </trkpt>
      <trkpt lat="32.722091" lon="-117.244092">
        <ele>70.250245</ele>
        <time>2024-06-23T07:56:45.000Z</time>
      </trkpt>
      <trkpt lat="32.722247" lon="-117.243783">
        <ele>69.515227</ele>
        <time>2024-06-23T07:56:48.000Z</time>
      </trkpt>
      <trkpt lat="32.722305" lon="-117.24366">
        <ele>69.192654</ele>
        <time>2024-06-23T07:56:49.000Z</time>
      </trkpt>
      <trkpt lat="32.722386" lon="-117.243559">
        <ele>68.903982</ele>
        <time>2024-06-23T07:56:50.000Z</time>
      </trkpt>
      <trkpt lat="32.722447" lon="-117.243439">
        <ele>68.603318</ele>
        <time>2024-06-23T07:56:51.000Z</time>
      </trkpt>
      <trkpt lat="32.722747" lon="-117.243037">
        <ele>67.506876</ele>
        <time>2024-06-23T07:56:56.000Z</time>
      </trkpt>
      <trkpt lat="32.72332" lon="-117.242564">
        <ele>65.880645</ele>
        <time>2024-06-23T07:57:04.000Z</time>
      </trkpt>
      <trkpt lat="32.723883" lon="-117.24229">
        <ele>64.84976</ele>
        <time>2024-06-23T07:57:11.000Z</time>
      </trkpt>
      <trkpt lat="32.724828" lon="-117.242018">
        <ele>63.188427</ele>
        <time>2024-06-23T07:57:22.000Z</time>
      </trkpt>
      <trkpt lat="32.727128" lon="-117.241285">
        <ele>55.551635</ele>
        <time>2024-06-23T07:57:48.000Z</time>
      </trkpt>
      <trkpt lat="32.727433" lon="-117.241096">
        <ele>53.904857</ele>
        <time>2024-06-23T07:57:52.000Z</time>
      </trkpt>
      <trkpt lat="32.727655" lon="-117.240823">
        <ele>52.314843</ele>
        <time>2024-06-23T07:57:56.000Z</time>
      </trkpt>
      <trkpt lat="32.727885" lon="-117.240403">
        <ele>50.226536</ele>
        <time>2024-06-23T07:58:01.000Z</time>
      </trkpt>
      <trkpt lat="32.727975" lon="-117.24007">
        <ele>48.844549</ele>
        <time>2024-06-23T07:58:04.000Z</time>
      </trkpt>
      <trkpt lat="32.727963" lon="-117.239736">
        <ele>47.63899</ele>
        <time>2024-06-23T07:58:07.000Z</time>
      </trkpt>
      <trkpt lat="32.727876" lon="-117.239249">
        <ele>45.775818</ele>
        <time>2024-06-23T07:58:12.000Z</time>
      </trkpt>
      <trkpt lat="32.72767" lon="-117.238827">
        <ele>44.004379</ele>
        <time>2024-06-23T07:58:17.000Z</time>
      </trkpt>
      <trkpt lat="32.727323" lon="-117.238462">
        <ele>42.000381</ele>
        <time>2024-06-23T07:58:22.000Z</time>
      </trkpt>
      <trkpt lat="32.726121" lon="-117.23756">
        <ele>35.806593</ele>
        <time>2024-06-23T07:58:38.000Z</time>
      </trkpt>
      <trkpt lat="32.72458" lon="-117.236404">
        <ele>26.474062</ele>
        <time>2024-06-23T07:58:58.000Z</time>
      </trkpt>
      <trkpt lat="32.724476" lon="-117.236295">
        <ele>25.767162</ele>
        <time>2024-06-23T07:59:00.000Z</time>
      </trkpt>
      <trkpt lat="32.723445" lon="-117.234732">
        <ele>16.99678</ele>
        <time>2024-06-23T07:59:19.000Z</time>
      </trkpt>
      <trkpt lat="32.72333" lon="-117.234544">
        <ele>16.017625</ele>
        <time>2024-06-23T07:59:21.000Z</time>
      </trkpt>
      <trkpt lat="32.723114" lon="-117.234206">
        <ele>14.256068</ele>
        <time>2024-06-23T07:59:25.000Z</time>
      </trkpt>
      <trkpt lat="32.722967" lon="-117.234044">
        <ele>13.567869</ele>
        <time>2024-06-23T07:59:27.000Z</time>
      </trkpt>
      <trkpt lat="32.722736" lon="-117.233877">
        <ele>12.582073</ele>
        <time>2024-06-23T07:59:30.000Z</time>
      </trkpt>
      <trkpt lat="32.722661" lon="-117.233798">
        <ele>12.277928</ele>
        <time>2024-06-23T07:59:31.000Z</time>
      </trkpt>
      <trkpt lat="32.722115" lon="-117.232897">
        <ele>9.022056</ele>
        <time>2024-06-23T07:59:41.000Z</time>
      </trkpt>
      <trkpt lat="32.722178" lon="-117.232846">
        <ele>8.741272</ele>
        <time>2024-06-23T07:59:42.000Z</time>
      </trkpt>
      <trkpt lat="32.722466" lon="-117.232598">
        <ele>7.836345</ele>
        <time>2024-06-23T07:59:46.000Z</time>
      </trkpt>
      <trkpt lat="32.722593" lon="-117.232477">
        <ele>7.499561</ele>
        <time>2024-06-23T07:59:48.000Z</time>
      </trkpt>
      <trkpt lat="32.722222" lon="-117.231885">
        <ele>6.242116</ele>
        <time>2024-06-23T07:59:55.000Z</time>
      </trkpt>
      <trkpt lat="32.722117" lon="-117.231684">
        <ele>5.84805</ele>
        <time>2024-06-23T07:59:57.000Z</time>
      </trkpt>
      <trkpt lat="32.722057" lon="-117.231595">
        <ele>5.651682</ele>
        <time>2024-06-23T07:59:58.000Z</time>
      </trkpt>
      <trkpt lat="32.722005" lon="-117.231516">
        <ele>5.500301</ele>
        <time>2024-06-23T07:59:59.000Z</time>
      </trkpt>
      <trkpt lat="32.721948" lon="-117.231422">
        <ele>5.282214</ele>
        <time>2024-06-23T08:00:00.000Z</time>
      </trkpt>
      <trkpt lat="32.721707" lon="-117.231017">
        <ele>4.550192</ele>
        <time>2024-06-23T08:00:05.000Z</time>
      </trkpt>
      <trkpt lat="32.721612" lon="-117.230866">
        <ele>4.377843</ele>
        <time>2024-06-23T08:00:07.000Z</time>
      </trkpt>
      <trkpt lat="32.721551" lon="-117.230772">
        <ele>4.268123</ele>
        <time>2024-06-23T08:00:08.000Z</time>
      </trkpt>
      <trkpt lat="32.721505" lon="-117.230708">
        <ele>4.208214</ele>
        <time>2024-06-23T08:00:09.000Z</time>
      </trkpt>
      <trkpt lat="32.721363" lon="-117.230459">
        <ele>3.941692</ele>
        <time>2024-06-23T08:00:12.000Z</time>
      </trkpt>
      <trkpt lat="32.72161" lon="-117.230264">
        <ele>3.637292</ele>
        <time>2024-06-23T08:00:15.000Z</time>
      </trkpt>
      <trkpt lat="32.721656" lon="-117.230218">
        <ele>3.563569</ele>
        <time>2024-06-23T08:00:16.000Z</time>
      </trkpt>
      <trkpt lat="32.721902" lon="-117.230022">
        <ele>3.266615</ele>
        <time>2024-06-23T08:00:19.000Z</time>
      </trkpt>
      <trkpt lat="32.721974" lon="-117.229939">
        <ele>3.163203</ele>
        <time>2024-06-23T08:00:20.000Z</time>
      </trkpt>
      <trkpt lat="32.722037" lon="-117.229877">
        <ele>3.061008</ele>
        <time>2024-06-23T08:00:21.000Z</time>
      </trkpt>
      <trkpt lat="32.722212" lon="-117.229732">
        <ele>2.848836</ele>
        <time>2024-06-23T08:00:23.000Z</time>
      </trkpt>
      <trkpt lat="32.722238" lon="-117.229697">
        <ele>2.808217</ele>
        <time>2024-06-23T08:00:23.000Z</time>
      </trkpt>
      <trkpt lat="32.722556" lon="-117.229423">
        <ele>2.524759</ele>
        <time>2024-06-23T08:00:27.000Z</time>
      </trkpt>
      <trkpt lat="32.722838" lon="-117.22919">
        <ele>2.296496</ele>
        <time>2024-06-23T08:00:31.000Z</time>
      </trkpt>
      <trkpt lat="32.723172" lon="-117.228922">
        <ele>2.035437</ele>
        <time>2024-06-23T08:00:35.000Z</time>
      </trkpt>
      <trkpt lat="32.723598" lon="-117.228553">
        <ele>1.678244</ele>
        <time>2024-06-23T08:00:41.000Z</time>
      </trkpt>
      <trkpt lat="32.723778" lon="-117.228411">
        <ele>1.549148</ele>
        <time>2024-06-23T08:00:43.000Z</time>
      </trkpt>
      <trkpt lat="32.72438" lon="-117.227901">
        <ele>1.229156</ele>
        <time>2024-06-23T08:00:51.000Z</time>
      </trkpt>
      <trkpt lat="32.724674" lon="-117.227629">
        <ele>1.069688</ele>
        <time>2024-06-23T08:00:55.000Z</time>
      </trkpt>
      <trkpt lat="32.724815" lon="-117.227512">
        <ele>0.995967</ele>
        <time>2024-06-23T08:00:57.000Z</time>
      </trkpt>
      <trkpt lat="32.724962" lon="-117.2274">
        <ele>0.923155</ele>
        <time>2024-06-23T08:00:59.000Z</time>
      </trkpt>
      <trkpt lat="32.724972" lon="-117.227382">
        <ele>0.912946</ele>
        <time>2024-06-23T08:00:59.000Z</time>
      </trkpt>
      <trkpt lat="32.72501" lon="-117.227349">
        <ele>0.896232</ele>
        <time>2024-06-23T08:01:00.000Z</time>
      </trkpt>
      <trkpt lat="32.72529" lon="-117.227118">
        <ele>0.811154</ele>
        <time>2024-06-23T08:01:04.000Z</time>
      </trkpt>
      <trkpt lat="32.725488" lon="-117.226824">
        <ele>0.877604</ele>
        <time>2024-06-23T08:01:08.000Z</time>
      </trkpt>
      <trkpt lat="32.725598" lon="-117.226606">
        <ele>0.920485</ele>
        <time>2024-06-23T08:01:10.000Z</time>
      </trkpt>
      <trkpt lat="32.725581" lon="-117.225826">
        <ele>1.058089</ele>
        <time>2024-06-23T08:01:17.000Z</time>
      </trkpt>
      <trkpt lat="32.725583" lon="-117.224998">
        <ele>1.28259</ele>
        <time>2024-06-23T08:01:25.000Z</time>
      </trkpt>
      <trkpt lat="32.725587" lon="-117.224842">
        <ele>1.36397</ele>
        <time>2024-06-23T08:01:26.000Z</time>
      </trkpt>
      <trkpt lat="32.725579" lon="-117.224496">
        <ele>1.552825</ele>
        <time>2024-06-23T08:01:29.000Z</time>
      </trkpt>
      <trkpt lat="32.725579" lon="-117.224411">
        <ele>1.596779</ele>
        <time>2024-06-23T08:01:30.000Z</time>
      </trkpt>
      <trkpt lat="32.725577" lon="-117.224333">
        <ele>1.646204</ele>
        <time>2024-06-23T08:01:31.000Z</time>
      </trkpt>
      <trkpt lat="32.725586" lon="-117.224308">
        <ele>1.660858</ele>
        <time>2024-06-23T08:01:31.000Z</time>
      </trkpt>
      <trkpt lat="32.725582" lon="-117.22337">
        <ele>2.161723</ele>
        <time>2024-06-23T08:01:40.000Z</time>
      </trkpt>
      <trkpt lat="32.725562" lon="-117.222369">
        <ele>2.534845</ele>
        <time>2024-06-23T08:01:49.000Z</time>
      </trkpt>
      <trkpt lat="32.725561" lon="-117.222098">
        <ele>2.614408</ele>
        <time>2024-06-23T08:01:52.000Z</time>
      </trkpt>
      <trkpt lat="32.725565" lon="-117.221905">
        <ele>2.674966</ele>
        <time>2024-06-23T08:01:54.000Z</time>
      </trkpt>
      <trkpt lat="32.725603" lon="-117.221544">
        <ele>2.778579</ele>
        <time>2024-06-23T08:01:57.000Z</time>
      </trkpt>
      <trkpt lat="32.725625" lon="-117.221407">
        <ele>2.824685</ele>
        <time>2024-06-23T08:01:58.000Z</time>
      </trkpt>
      <trkpt lat="32.725632" lon="-117.22127">
        <ele>2.862812</ele>
        <time>2024-06-23T08:01:59.000Z</time>
      </trkpt>
      <trkpt lat="32.725847" lon="-117.220666">
        <ele>2.946265</ele>
        <time>2024-06-23T08:02:05.000Z</time>
      </trkpt>
      <trkpt lat="32.726819" lon="-117.218774">
        <ele>2.688676</ele>
        <time>2024-06-23T08:02:26.000Z</time>
      </trkpt>
      <trkpt lat="32.726838" lon="-117.218719">
        <ele>2.661169</ele>
        <time>2024-06-23T08:02:27.000Z</time>
      </trkpt>
      <trkpt lat="32.727077" lon="-117.218262">
        <ele>2.429868</ele>
        <time>2024-06-23T08:02:32.000Z</time>
      </trkpt>
      <trkpt lat="32.727112" lon="-117.218187">
        <ele>2.3928</ele>
        <time>2024-06-23T08:02:33.000Z</time>
      </trkpt>
      <trkpt lat="32.727161" lon="-117.218059">
        <ele>2.333674</ele>
        <time>2024-06-23T08:02:34.000Z</time>
      </trkpt>
      <trkpt lat="32.727209" lon="-117.217993">
        <ele>2.294266</ele>
        <time>2024-06-23T08:02:35.000Z</time>
      </trkpt>
      <trkpt lat="32.727709" lon="-117.216815">
        <ele>1.703377</ele>
        <time>2024-06-23T08:02:47.000Z</time>
      </trkpt>
      <trkpt lat="32.728016" lon="-117.215646">
        <ele>1.113311</ele>
        <time>2024-06-23T08:02:58.000Z</time>
      </trkpt>
      <trkpt lat="32.72848" lon="-117.213438">
        <ele>0.776799</ele>
        <time>2024-06-23T08:03:19.000Z</time>
      </trkpt>
      <trkpt lat="32.728582" lon="-117.212621">
        <ele>0.681690405555</ele>
        <time>2024-06-23T08:03:27.000Z</time>
      </trkpt>
      <trkpt lat="32.728681" lon="-117.211773">
        <ele>0.583106812627</ele>
        <time>2024-06-23T08:03:35.000Z</time>
      </trkpt>
      <trkpt lat="32.728685" lon="-117.211673">
        <ele>0.571578742423</ele>
        <time>2024-06-23T08:03:36.000Z</time>
      </trkpt>
    </trkseg>
  </trk>
</gpx>

<!--
Performance optimized by W3 Total Cache. Learn more: https://www.boldgrid.com/w3-total-cache/?utm_source=w3tc&utm_medium=footer_comment&utm_campaign=free_plugin

Page Caching using Disk: Enhanced{w3tc_pagecache_reject_reason} 

Served from: www.aquabike.world @ 2026-05-10 20:19:56 by W3 Total Cache
-->